sensor_id;sensor_type;location;lat;lon;timestamp;P1;durP1;ratioP1;P2;durP2;ratioP2
33952;SDS011;20231;42.710;23.280;2022-12-28T00:01:22;9.75;;;7.22;;
33952;SDS011;20231;42.710;23.280;2022-12-28T00:03:50;10.98;;;7.20;;
33952;SDS011;20231;42.710;23.280;2022-12-28T00:06:17;10.85;;;6.78;;
33952;SDS011;20231;42.710;23.280;2022-12-28T00:08:44;11.65;;;8.02;;
33952;SDS011;20231;42.710;23.280;2022-12-28T00:11:11;10.00;;;6.85;;
33952;SDS011;20231;42.710;23.280;2022-12-28T00:13:39;9.98;;;6.22;;
33952;SDS011;20231;42.710;23.280;2022-12-28T00:16:05;10.07;;;6.45;;
33952;SDS011;20231;42.710;23.280;2022-12-28T00:18:51;10.75;;;6.35;;
33952;SDS011;20231;42.710;23.280;2022-12-28T00:21:17;9.63;;;5.97;;
33952;SDS011;20231;42.710;23.280;2022-12-28T00:23:42;8.48;;;5.75;;
33952;SDS011;20231;42.710;23.280;2022-12-28T00:26:09;10.68;;;6.82;;
33952;SDS011;20231;42.710;23.280;2022-12-28T00:28:37;10.38;;;6.30;;
33952;SDS011;20231;42.710;23.280;2022-12-28T00:31:02;10.07;;;6.53;;
33952;SDS011;20231;42.710;23.280;2022-12-28T00:33:28;9.88;;;7.07;;
33952;SDS011;20231;42.710;23.280;2022-12-28T00:35:55;10.27;;;6.75;;
33952;SDS011;20231;42.710;23.280;2022-12-28T00:38:21;11.95;;;8.20;;
33952;SDS011;20231;42.710;23.280;2022-12-28T00:40:47;13.95;;;8.20;;
33952;SDS011;20231;42.710;23.280;2022-12-28T00:43:13;16.23;;;9.18;;
33952;SDS011;20231;42.710;23.280;2022-12-28T00:45:38;13.63;;;9.90;;
33952;SDS011;20231;42.710;23.280;2022-12-28T00:48:03;15.27;;;10.02;;
33952;SDS011;20231;42.710;23.280;2022-12-28T00:50:29;15.82;;;10.05;;
33952;SDS011;20231;42.710;23.280;2022-12-28T00:52:54;16.52;;;11.50;;
33952;SDS011;20231;42.710;23.280;2022-12-28T00:55:20;15.88;;;10.93;;
33952;SDS011;20231;42.710;23.280;2022-12-28T00:57:45;16.90;;;11.15;;
33952;SDS011;20231;42.710;23.280;2022-12-28T01:00:11;20.20;;;12.00;;
33952;SDS011;20231;42.710;23.280;2022-12-28T01:02:37;18.33;;;11.05;;
33952;SDS011;20231;42.710;23.280;2022-12-28T01:05:02;19.95;;;12.85;;
33952;SDS011;20231;42.710;23.280;2022-12-28T01:07:29;21.92;;;12.82;;
33952;SDS011;20231;42.710;23.280;2022-12-28T01:09:54;19.65;;;12.18;;
33952;SDS011;20231;42.710;23.280;2022-12-28T01:12:20;20.65;;;14.20;;
33952;SDS011;20231;42.710;23.280;2022-12-28T01:14:45;21.13;;;13.48;;
33952;SDS011;20231;42.710;23.280;2022-12-28T01:17:10;21.25;;;13.35;;
33952;SDS011;20231;42.710;23.280;2022-12-28T01:19:36;20.35;;;13.52;;
33952;SDS011;20231;42.710;23.280;2022-12-28T01:22:01;20.15;;;13.35;;
33952;SDS011;20231;42.710;23.280;2022-12-28T01:24:26;22.55;;;14.02;;
33952;SDS011;20231;42.710;23.280;2022-12-28T01:26:52;19.77;;;14.52;;
33952;SDS011;20231;42.710;23.280;2022-12-28T01:29:17;19.08;;;13.02;;
33952;SDS011;20231;42.710;23.280;2022-12-28T01:31:43;18.45;;;13.52;;
33952;SDS011;20231;42.710;23.280;2022-12-28T01:34:08;20.77;;;13.95;;
33952;SDS011;20231;42.710;23.280;2022-12-28T01:36:33;21.67;;;14.88;;
33952;SDS011;20231;42.710;23.280;2022-12-28T01:39:00;19.75;;;14.20;;
33952;SDS011;20231;42.710;23.280;2022-12-28T01:41:28;21.15;;;13.95;;
33952;SDS011;20231;42.710;23.280;2022-12-28T01:48:55;21.70;;;15.15;;
33952;SDS011;20231;42.710;23.280;2022-12-28T01:51:21;25.25;;;15.70;;
33952;SDS011;20231;42.710;23.280;2022-12-28T01:53:50;20.10;;;14.38;;
33952;SDS011;20231;42.710;23.280;2022-12-28T01:56:18;21.05;;;15.13;;
33952;SDS011;20231;42.710;23.280;2022-12-28T01:58:44;22.05;;;15.93;;
33952;SDS011;20231;42.710;23.280;2022-12-28T02:01:10;21.92;;;15.68;;
33952;SDS011;20231;42.710;23.280;2022-12-28T02:03:36;22.52;;;15.50;;
33952;SDS011;20231;42.710;23.280;2022-12-28T02:06:03;23.33;;;15.98;;
33952;SDS011;20231;42.710;23.280;2022-12-28T02:08:35;24.58;;;16.30;;
33952;SDS011;20231;42.710;23.280;2022-12-28T02:11:06;21.92;;;15.07;;
33952;SDS011;20231;42.710;23.280;2022-12-28T02:13:34;26.58;;;15.52;;
33952;SDS011;20231;42.710;23.280;2022-12-28T02:15:59;22.48;;;14.25;;
33952;SDS011;20231;42.710;23.280;2022-12-28T02:18:25;21.58;;;14.23;;
33952;SDS011;20231;42.710;23.280;2022-12-28T02:29:12;21.15;;;14.05;;
33952;SDS011;20231;42.710;23.280;2022-12-28T02:36:51;21.80;;;15.60;;
33952;SDS011;20231;42.710;23.280;2022-12-28T02:39:21;20.58;;;14.07;;
33952;SDS011;20231;42.710;23.280;2022-12-28T02:41:54;22.92;;;15.73;;
33952;SDS011;20231;42.710;23.280;2022-12-28T02:44:21;19.98;;;13.90;;
33952;SDS011;20231;42.710;23.280;2022-12-28T02:47:08;21.25;;;14.27;;
33952;SDS011;20231;42.710;23.280;2022-12-28T02:49:57;22.65;;;13.90;;
33952;SDS011;20231;42.710;23.280;2022-12-28T02:58:15;18.50;;;12.60;;
33952;SDS011;20231;42.710;23.280;2022-12-28T03:09:26;16.55;;;10.38;;
33952;SDS011;20231;42.710;23.280;2022-12-28T03:14:38;15.13;;;9.68;;
33952;SDS011;20231;42.710;23.280;2022-12-28T03:17:09;17.90;;;10.20;;
33952;SDS011;20231;42.710;23.280;2022-12-28T03:19:58;12.60;;;9.85;;
33952;SDS011;20231;42.710;23.280;2022-12-28T03:22:46;13.73;;;10.27;;
33952;SDS011;20231;42.710;23.280;2022-12-28T03:25:34;17.38;;;9.15;;
33952;SDS011;20231;42.710;23.280;2022-12-28T03:28:23;11.63;;;8.48;;
33952;SDS011;20231;42.710;23.280;2022-12-28T03:31:13;13.18;;;8.77;;
33952;SDS011;20231;42.710;23.280;2022-12-28T03:33:47;19.70;;;9.70;;
33952;SDS011;20231;42.710;23.280;2022-12-28T03:36:27;17.30;;;8.80;;
33952;SDS011;20231;42.710;23.280;2022-12-28T03:42:35;12.77;;;8.13;;
33952;SDS011;20231;42.710;23.280;2022-12-28T03:45:19;14.73;;;7.95;;
33952;SDS011;20231;42.710;23.280;2022-12-28T03:47:49;11.57;;;8.27;;
33952;SDS011;20231;42.710;23.280;2022-12-28T03:50:16;9.25;;;6.72;;
33952;SDS011;20231;42.710;23.280;2022-12-28T03:52:44;11.60;;;7.50;;
33952;SDS011;20231;42.710;23.280;2022-12-28T03:55:10;10.50;;;6.93;;
33952;SDS011;20231;42.710;23.280;2022-12-28T03:57:38;10.73;;;7.15;;
33952;SDS011;20231;42.710;23.280;2022-12-28T04:00:04;11.05;;;6.25;;
33952;SDS011;20231;42.710;23.280;2022-12-28T04:02:30;13.75;;;7.88;;
33952;SDS011;20231;42.710;23.280;2022-12-28T04:04:56;12.25;;;7.13;;
33952;SDS011;20231;42.710;23.280;2022-12-28T04:07:21;11.25;;;6.82;;
33952;SDS011;20231;42.710;23.280;2022-12-28T04:09:46;13.75;;;6.88;;
33952;SDS011;20231;42.710;23.280;2022-12-28T04:12:12;9.13;;;6.03;;
33952;SDS011;20231;42.710;23.280;2022-12-28T04:14:38;9.70;;;6.30;;
33952;SDS011;20231;42.710;23.280;2022-12-28T04:17:04;12.25;;;6.43;;
33952;SDS011;20231;42.710;23.280;2022-12-28T04:19:29;8.35;;;5.75;;
33952;SDS011;20231;42.710;23.280;2022-12-28T04:21:55;8.82;;;5.70;;
33952;SDS011;20231;42.710;23.280;2022-12-28T04:24:20;10.48;;;6.85;;
33952;SDS011;20231;42.710;23.280;2022-12-28T04:26:45;11.52;;;6.47;;
33952;SDS011;20231;42.710;23.280;2022-12-28T04:29:11;12.23;;;6.93;;
33952;SDS011;20231;42.710;23.280;2022-12-28T04:31:36;11.40;;;6.28;;
33952;SDS011;20231;42.710;23.280;2022-12-28T04:34:02;13.13;;;6.82;;
33952;SDS011;20231;42.710;23.280;2022-12-28T04:36:30;11.75;;;7.47;;
33952;SDS011;20231;42.710;23.280;2022-12-28T04:39:01;8.07;;;5.95;;
33952;SDS011;20231;42.710;23.280;2022-12-28T04:41:27;11.05;;;7.40;;
33952;SDS011;20231;42.710;23.280;2022-12-28T04:43:53;8.23;;;5.95;;
33952;SDS011;20231;42.710;23.280;2022-12-28T04:46:18;13.30;;;6.50;;
33952;SDS011;20231;42.710;23.280;2022-12-28T04:48:44;8.10;;;5.80;;
33952;SDS011;20231;42.710;23.280;2022-12-28T04:51:19;9.95;;;6.05;;
33952;SDS011;20231;42.710;23.280;2022-12-28T04:53:49;21.17;;;14.13;;
33952;SDS011;20231;42.710;23.280;2022-12-28T04:56:16;86.43;;;61.95;;
33952;SDS011;20231;42.710;23.280;2022-12-28T04:58:43;83.40;;;58.92;;
33952;SDS011;20231;42.710;23.280;2022-12-28T05:01:12;31.67;;;20.08;;
33952;SDS011;20231;42.710;23.280;2022-12-28T05:03:40;16.83;;;9.57;;
33952;SDS011;20231;42.710;23.280;2022-12-28T05:06:11;11.00;;;7.38;;
33952;SDS011;20231;42.710;23.280;2022-12-28T05:08:38;11.60;;;6.40;;
33952;SDS011;20231;42.710;23.280;2022-12-28T05:11:05;9.52;;;5.65;;
33952;SDS011;20231;42.710;23.280;2022-12-28T05:13:33;7.50;;;4.70;;
33952;SDS011;20231;42.710;23.280;2022-12-28T05:16:00;9.80;;;4.82;;
33952;SDS011;20231;42.710;23.280;2022-12-28T05:18:29;8.07;;;5.28;;
33952;SDS011;20231;42.710;23.280;2022-12-28T05:21:05;6.22;;;4.97;;
33952;SDS011;20231;42.710;23.280;2022-12-28T05:23:33;6.65;;;4.60;;
33952;SDS011;20231;42.710;23.280;2022-12-28T05:26:00;9.95;;;5.25;;
33952;SDS011;20231;42.710;23.280;2022-12-28T05:28:26;7.53;;;5.53;;
33952;SDS011;20231;42.710;23.280;2022-12-28T05:30:52;7.95;;;4.78;;
33952;SDS011;20231;42.710;23.280;2022-12-28T05:33:22;8.45;;;5.80;;
33952;SDS011;20231;42.710;23.280;2022-12-28T05:35:48;8.23;;;5.13;;
33952;SDS011;20231;42.710;23.280;2022-12-28T05:38:13;11.70;;;5.47;;
33952;SDS011;20231;42.710;23.280;2022-12-28T05:40:38;7.72;;;5.63;;
33952;SDS011;20231;42.710;23.280;2022-12-28T05:43:08;8.93;;;5.35;;
33952;SDS011;20231;42.710;23.280;2022-12-28T05:45:34;10.95;;;5.35;;
33952;SDS011;20231;42.710;23.280;2022-12-28T05:47:59;8.15;;;5.50;;
33952;SDS011;20231;42.710;23.280;2022-12-28T05:50:24;10.02;;;5.00;;
33952;SDS011;20231;42.710;23.280;2022-12-28T05:52:50;10.07;;;5.63;;
33952;SDS011;20231;42.710;23.280;2022-12-28T05:55:15;10.70;;;5.57;;
33952;SDS011;20231;42.710;23.280;2022-12-28T05:57:41;10.23;;;5.90;;
33952;SDS011;20231;42.710;23.280;2022-12-28T06:00:06;8.50;;;5.43;;
33952;SDS011;20231;42.710;23.280;2022-12-28T06:02:32;8.68;;;6.03;;
33952;SDS011;20231;42.710;23.280;2022-12-28T06:04:57;9.88;;;6.10;;
33952;SDS011;20231;42.710;23.280;2022-12-28T06:07:23;7.95;;;5.68;;
33952;SDS011;20231;42.710;23.280;2022-12-28T06:09:48;14.65;;;6.60;;
33952;SDS011;20231;42.710;23.280;2022-12-28T06:12:13;12.23;;;6.50;;
33952;SDS011;20231;42.710;23.280;2022-12-28T06:14:39;13.30;;;6.82;;
33952;SDS011;20231;42.710;23.280;2022-12-28T06:17:04;9.68;;;6.35;;
33952;SDS011;20231;42.710;23.280;2022-12-28T06:19:30;9.38;;;6.65;;
33952;SDS011;20231;42.710;23.280;2022-12-28T06:21:55;11.85;;;6.30;;
33952;SDS011;20231;42.710;23.280;2022-12-28T06:24:21;12.07;;;6.68;;
33952;SDS011;20231;42.710;23.280;2022-12-28T06:26:46;11.25;;;6.30;;
33952;SDS011;20231;42.710;23.280;2022-12-28T06:29:12;9.60;;;6.55;;
33952;SDS011;20231;42.710;23.280;2022-12-28T06:31:39;13.35;;;6.95;;
33952;SDS011;20231;42.710;23.280;2022-12-28T06:34:08;11.00;;;6.80;;
33952;SDS011;20231;42.710;23.280;2022-12-28T06:36:35;12.30;;;7.22;;
33952;SDS011;20231;42.710;23.280;2022-12-28T06:39:03;14.35;;;8.25;;
33952;SDS011;20231;42.710;23.280;2022-12-28T06:41:30;18.40;;;7.85;;
33952;SDS011;20231;42.710;23.280;2022-12-28T06:43:56;11.82;;;7.15;;
33952;SDS011;20231;42.710;23.280;2022-12-28T06:46:23;16.67;;;8.43;;
33952;SDS011;20231;42.710;23.280;2022-12-28T06:48:51;12.80;;;7.72;;
33952;SDS011;20231;42.710;23.280;2022-12-28T06:51:21;14.25;;;8.25;;
33952;SDS011;20231;42.710;23.280;2022-12-28T06:53:50;13.60;;;7.60;;
33952;SDS011;20231;42.710;23.280;2022-12-28T06:58:50;15.10;;;8.35;;
33952;SDS011;20231;42.710;23.280;2022-12-28T07:01:21;13.70;;;8.32;;
33952;SDS011;20231;42.710;23.280;2022-12-28T07:03:48;14.50;;;7.22;;
33952;SDS011;20231;42.710;23.280;2022-12-28T07:06:17;13.07;;;7.55;;
33952;SDS011;20231;42.710;23.280;2022-12-28T07:08:44;13.93;;;7.40;;
33952;SDS011;20231;42.710;23.280;2022-12-28T07:11:11;11.45;;;7.70;;
33952;SDS011;20231;42.710;23.280;2022-12-28T07:13:38;17.15;;;8.82;;
33952;SDS011;20231;42.710;23.280;2022-12-28T07:16:05;14.25;;;8.05;;
33952;SDS011;20231;42.710;23.280;2022-12-28T07:18:33;17.23;;;8.13;;
33952;SDS011;20231;42.710;23.280;2022-12-28T07:21:03;17.83;;;8.18;;
33952;SDS011;20231;42.710;23.280;2022-12-28T07:23:31;17.27;;;8.57;;
33952;SDS011;20231;42.710;23.280;2022-12-28T07:26:02;14.75;;;8.80;;
33952;SDS011;20231;42.710;23.280;2022-12-28T07:28:32;53.38;;;25.58;;
33952;SDS011;20231;42.710;23.280;2022-12-28T07:31:03;55.67;;;27.55;;
33952;SDS011;20231;42.710;23.280;2022-12-28T07:33:30;41.88;;;21.20;;
33952;SDS011;20231;42.710;23.280;2022-12-28T07:35:56;23.92;;;11.70;;
33952;SDS011;20231;42.710;23.280;2022-12-28T07:38:22;16.45;;;8.63;;
33952;SDS011;20231;42.710;23.280;2022-12-28T07:40:47;16.00;;;9.00;;
33952;SDS011;20231;42.710;23.280;2022-12-28T07:43:13;16.05;;;8.73;;
33952;SDS011;20231;42.710;23.280;2022-12-28T07:45:38;20.90;;;9.20;;
33952;SDS011;20231;42.710;23.280;2022-12-28T07:48:03;20.65;;;9.90;;
33952;SDS011;20231;42.710;23.280;2022-12-28T07:50:29;19.50;;;9.25;;
33952;SDS011;20231;42.710;23.280;2022-12-28T07:52:54;15.60;;;7.72;;
33952;SDS011;20231;42.710;23.280;2022-12-28T07:55:20;16.20;;;6.75;;
33952;SDS011;20231;42.710;23.280;2022-12-28T07:57:45;15.20;;;7.50;;
33952;SDS011;20231;42.710;23.280;2022-12-28T08:00:10;11.27;;;6.68;;
33952;SDS011;20231;42.710;23.280;2022-12-28T08:02:36;8.13;;;6.05;;
33952;SDS011;20231;42.710;23.280;2022-12-28T08:05:01;9.05;;;5.55;;
33952;SDS011;20231;42.710;23.280;2022-12-28T08:07:27;11.05;;;5.82;;
33952;SDS011;20231;42.710;23.280;2022-12-28T08:09:52;8.13;;;5.53;;
33952;SDS011;20231;42.710;23.280;2022-12-28T08:12:18;10.50;;;5.95;;
33952;SDS011;20231;42.710;23.280;2022-12-28T08:14:43;12.25;;;5.43;;
33952;SDS011;20231;42.710;23.280;2022-12-28T08:17:09;12.60;;;6.55;;
33952;SDS011;20231;42.710;23.280;2022-12-28T08:19:34;10.00;;;6.15;;
33952;SDS011;20231;42.710;23.280;2022-12-28T08:21:59;7.43;;;5.30;;
33952;SDS011;20231;42.710;23.280;2022-12-28T08:24:25;10.45;;;6.50;;
33952;SDS011;20231;42.710;23.280;2022-12-28T08:26:51;10.20;;;6.00;;
33952;SDS011;20231;42.710;23.280;2022-12-28T08:29:17;10.98;;;6.28;;
33952;SDS011;20231;42.710;23.280;2022-12-28T08:31:45;9.27;;;6.15;;
33952;SDS011;20231;42.710;23.280;2022-12-28T08:34:15;11.68;;;5.55;;
33952;SDS011;20231;42.710;23.280;2022-12-28T08:36:43;8.77;;;6.00;;
33952;SDS011;20231;42.710;23.280;2022-12-28T08:39:09;9.73;;;5.32;;
33952;SDS011;20231;42.710;23.280;2022-12-28T08:41:34;15.07;;;5.80;;
33952;SDS011;20231;42.710;23.280;2022-12-28T08:44:01;12.90;;;5.68;;
33952;SDS011;20231;42.710;23.280;2022-12-28T08:46:27;10.85;;;7.03;;
33952;SDS011;20231;42.710;23.280;2022-12-28T08:48:55;10.60;;;5.55;;
33952;SDS011;20231;42.710;23.280;2022-12-28T08:51:22;8.60;;;6.20;;
33952;SDS011;20231;42.710;23.280;2022-12-28T08:53:54;9.80;;;6.05;;
33952;SDS011;20231;42.710;23.280;2022-12-28T08:56:23;10.20;;;5.70;;
33952;SDS011;20231;42.710;23.280;2022-12-28T08:58:52;17.08;;;6.50;;
33952;SDS011;20231;42.710;23.280;2022-12-28T09:01:19;10.38;;;6.50;;
33952;SDS011;20231;42.710;23.280;2022-12-28T09:03:47;11.15;;;5.68;;
33952;SDS011;20231;42.710;23.280;2022-12-28T09:06:16;12.82;;;7.38;;
33952;SDS011;20231;42.710;23.280;2022-12-28T09:08:43;13.15;;;6.22;;
33952;SDS011;20231;42.710;23.280;2022-12-28T09:11:10;11.98;;;5.88;;
33952;SDS011;20231;42.710;23.280;2022-12-28T09:13:38;10.70;;;5.82;;
33952;SDS011;20231;42.710;23.280;2022-12-28T09:16:08;9.27;;;6.97;;
33952;SDS011;20231;42.710;23.280;2022-12-28T09:18:35;9.20;;;6.07;;
33952;SDS011;20231;42.710;23.280;2022-12-28T09:21:05;9.55;;;6.35;;
33952;SDS011;20231;42.710;23.280;2022-12-28T09:23:32;9.52;;;6.43;;
33952;SDS011;20231;42.710;23.280;2022-12-28T09:26:19;11.32;;;6.80;;
33952;SDS011;20231;42.710;23.280;2022-12-28T09:28:54;19.33;;;9.50;;
33952;SDS011;20231;42.710;23.280;2022-12-28T09:31:22;23.20;;;10.55;;
33952;SDS011;20231;42.710;23.280;2022-12-28T09:33:49;22.98;;;11.07;;
33952;SDS011;20231;42.710;23.280;2022-12-28T09:36:27;18.98;;;8.65;;
33952;SDS011;20231;42.710;23.280;2022-12-28T09:39:02;17.25;;;7.47;;
33952;SDS011;20231;42.710;23.280;2022-12-28T09:47:21;12.10;;;7.72;;
33952;SDS011;20231;42.710;23.280;2022-12-28T09:52:50;12.18;;;7.15;;
33952;SDS011;20231;42.710;23.280;2022-12-28T09:55:22;15.05;;;7.97;;
33952;SDS011;20231;42.710;23.280;2022-12-28T09:57:53;12.93;;;7.13;;
33952;SDS011;20231;42.710;23.280;2022-12-28T10:03:04;15.80;;;7.80;;
33952;SDS011;20231;42.710;23.280;2022-12-28T10:05:36;15.32;;;7.68;;
33952;SDS011;20231;42.710;23.280;2022-12-28T10:08:02;12.75;;;7.60;;
33952;SDS011;20231;42.710;23.280;2022-12-28T10:10:27;14.35;;;8.30;;
33952;SDS011;20231;42.710;23.280;2022-12-28T10:12:54;14.25;;;8.32;;
33952;SDS011;20231;42.710;23.280;2022-12-28T10:15:21;14.43;;;9.10;;
33952;SDS011;20231;42.710;23.280;2022-12-28T10:17:51;32.00;;;13.77;;
33952;SDS011;20231;42.710;23.280;2022-12-28T10:20:17;55.72;;;22.02;;
33952;SDS011;20231;42.710;23.280;2022-12-28T10:22:46;24.63;;;10.90;;
33952;SDS011;20231;42.710;23.280;2022-12-28T10:25:16;18.80;;;9.88;;
33952;SDS011;20231;42.710;23.280;2022-12-28T10:27:43;18.17;;;9.23;;
33952;SDS011;20231;42.710;23.280;2022-12-28T10:30:13;15.77;;;8.90;;
33952;SDS011;20231;42.710;23.280;2022-12-28T10:32:57;21.73;;;9.45;;
33952;SDS011;20231;42.710;23.280;2022-12-28T10:35:28;7.75;;;5.00;;
33952;SDS011;20231;42.710;23.280;2022-12-28T10:38:01;10.70;;;5.75;;
33952;SDS011;20231;42.710;23.280;2022-12-28T10:40:31;31.88;;;10.25;;
33952;SDS011;20231;42.710;23.280;2022-12-28T10:42:59;57.80;;;15.88;;
33952;SDS011;20231;42.710;23.280;2022-12-28T10:50:46;13.93;;;7.00;;
33952;SDS011;20231;42.710;23.280;2022-12-28T10:55:42;17.08;;;8.43;;
33952;SDS011;20231;42.710;23.280;2022-12-28T10:58:20;17.83;;;7.63;;
33952;SDS011;20231;42.710;23.280;2022-12-28T11:00:57;11.82;;;6.97;;
33952;SDS011;20231;42.710;23.280;2022-12-28T11:03:32;12.75;;;7.47;;
33952;SDS011;20231;42.710;23.280;2022-12-28T11:06:17;11.65;;;6.75;;
33952;SDS011;20231;42.710;23.280;2022-12-28T11:08:44;12.48;;;7.05;;
33952;SDS011;20231;42.710;23.280;2022-12-28T11:11:23;10.02;;;6.57;;
33952;SDS011;20231;42.710;23.280;2022-12-28T11:13:54;11.82;;;7.22;;
33952;SDS011;20231;42.710;23.280;2022-12-28T11:16:26;15.27;;;8.57;;
33952;SDS011;20231;42.710;23.280;2022-12-28T11:18:54;18.52;;;9.07;;
33952;SDS011;20231;42.710;23.280;2022-12-28T11:21:20;11.13;;;7.55;;
33952;SDS011;20231;42.710;23.280;2022-12-28T11:23:49;13.48;;;7.97;;
33952;SDS011;20231;42.710;23.280;2022-12-28T11:26:16;13.50;;;7.05;;
33952;SDS011;20231;42.710;23.280;2022-12-28T11:28:42;15.95;;;7.00;;
33952;SDS011;20231;42.710;23.280;2022-12-28T11:31:32;17.83;;;9.82;;
33952;SDS011;20231;42.710;23.280;2022-12-28T11:34:02;20.45;;;9.30;;
33952;SDS011;20231;42.710;23.280;2022-12-28T11:36:31;20.42;;;9.77;;
33952;SDS011;20231;42.710;23.280;2022-12-28T11:41:56;12.77;;;7.60;;
33952;SDS011;20231;42.710;23.280;2022-12-28T11:47:04;12.02;;;7.70;;
33952;SDS011;20231;42.710;23.280;2022-12-28T11:49:39;9.50;;;6.63;;
33952;SDS011;20231;42.710;23.280;2022-12-28T11:54:55;19.00;;;9.75;;
33952;SDS011;20231;42.710;23.280;2022-12-28T11:57:38;20.00;;;10.90;;
33952;SDS011;20231;42.710;23.280;2022-12-28T12:02:59;16.00;;;9.70;;
33952;SDS011;20231;42.710;23.280;2022-12-28T12:10:47;19.45;;;10.55;;
33952;SDS011;20231;42.710;23.280;2022-12-28T12:16:30;17.17;;;10.13;;
33952;SDS011;20231;42.710;23.280;2022-12-28T12:19:13;22.80;;;12.77;;
33952;SDS011;20231;42.710;23.280;2022-12-28T12:21:45;21.02;;;11.90;;
33952;SDS011;20231;42.710;23.280;2022-12-28T12:24:35;28.77;;;14.93;;
33952;SDS011;20231;42.710;23.280;2022-12-28T12:27:13;24.77;;;12.48;;
33952;SDS011;20231;42.710;23.280;2022-12-28T12:29:43;24.65;;;12.43;;
33952;SDS011;20231;42.710;23.280;2022-12-28T12:32:24;27.38;;;13.35;;
33952;SDS011;20231;42.710;23.280;2022-12-28T12:35:05;26.75;;;13.38;;
33952;SDS011;20231;42.710;23.280;2022-12-28T12:37:36;28.63;;;12.93;;
33952;SDS011;20231;42.710;23.280;2022-12-28T12:43:27;26.38;;;13.40;;
33952;SDS011;20231;42.710;23.280;2022-12-28T12:51:30;23.77;;;13.02;;
33952;SDS011;20231;42.710;23.280;2022-12-28T12:54:23;21.35;;;12.70;;
33952;SDS011;20231;42.710;23.280;2022-12-28T13:05:18;23.70;;;13.90;;
33952;SDS011;20231;42.710;23.280;2022-12-28T13:07:47;20.30;;;13.07;;
33952;SDS011;20231;42.710;23.280;2022-12-28T13:10:14;20.27;;;12.05;;
33952;SDS011;20231;42.710;23.280;2022-12-28T13:12:50;17.77;;;11.70;;
33952;SDS011;20231;42.710;23.280;2022-12-28T13:15:20;30.25;;;12.75;;
33952;SDS011;20231;42.710;23.280;2022-12-28T13:20:31;23.40;;;13.32;;
33952;SDS011;20231;42.710;23.280;2022-12-28T13:23:14;19.27;;;12.30;;
33952;SDS011;20231;42.710;23.280;2022-12-28T13:25:42;25.13;;;13.20;;
33952;SDS011;20231;42.710;23.280;2022-12-28T13:28:16;23.02;;;12.93;;
33952;SDS011;20231;42.710;23.280;2022-12-28T13:30:53;20.52;;;12.93;;
33952;SDS011;20231;42.710;23.280;2022-12-28T13:33:25;22.88;;;12.77;;
33952;SDS011;20231;42.710;23.280;2022-12-28T13:36:03;26.27;;;14.80;;
33952;SDS011;20231;42.710;23.280;2022-12-28T13:38:34;25.42;;;14.40;;
33952;SDS011;20231;42.710;23.280;2022-12-28T13:41:00;24.25;;;15.55;;
33952;SDS011;20231;42.710;23.280;2022-12-28T13:46:32;25.83;;;15.45;;
33952;SDS011;20231;42.710;23.280;2022-12-28T13:48:59;27.60;;;14.38;;
33952;SDS011;20231;42.710;23.280;2022-12-28T13:51:25;22.13;;;14.02;;
33952;SDS011;20231;42.710;23.280;2022-12-28T13:53:53;21.25;;;13.20;;
33952;SDS011;20231;42.710;23.280;2022-12-28T13:56:22;25.75;;;14.88;;
33952;SDS011;20231;42.710;23.280;2022-12-28T13:58:49;23.42;;;12.90;;
33952;SDS011;20231;42.710;23.280;2022-12-28T14:01:24;22.90;;;13.35;;
33952;SDS011;20231;42.710;23.280;2022-12-28T14:04:04;25.98;;;13.95;;
33952;SDS011;20231;42.710;23.280;2022-12-28T14:06:31;19.13;;;13.75;;
33952;SDS011;20231;42.710;23.280;2022-12-28T14:08:57;22.65;;;13.43;;
33952;SDS011;20231;42.710;23.280;2022-12-28T14:11:23;22.70;;;14.38;;
33952;SDS011;20231;42.710;23.280;2022-12-28T14:13:49;22.85;;;15.07;;
33952;SDS011;20231;42.710;23.280;2022-12-28T14:16:15;29.70;;;16.38;;
33952;SDS011;20231;42.710;23.280;2022-12-28T14:18:42;30.67;;;16.58;;
33952;SDS011;20231;42.710;23.280;2022-12-28T14:21:09;25.92;;;15.23;;
33952;SDS011;20231;42.710;23.280;2022-12-28T14:23:36;27.05;;;15.90;;
33952;SDS011;20231;42.710;23.280;2022-12-28T14:26:03;25.20;;;15.65;;
33952;SDS011;20231;42.710;23.280;2022-12-28T14:28:44;27.85;;;16.70;;
33952;SDS011;20231;42.710;23.280;2022-12-28T14:31:13;26.42;;;15.82;;
33952;SDS011;20231;42.710;23.280;2022-12-28T14:33:50;30.75;;;17.75;;
33952;SDS011;20231;42.710;23.280;2022-12-28T14:36:23;34.92;;;19.08;;
33952;SDS011;20231;42.710;23.280;2022-12-28T14:38:53;40.05;;;22.42;;
33952;SDS011;20231;42.710;23.280;2022-12-28T14:41:28;39.30;;;21.02;;
33952;SDS011;20231;42.710;23.280;2022-12-28T14:43:57;37.30;;;20.33;;
33952;SDS011;20231;42.710;23.280;2022-12-28T14:48:51;34.35;;;19.75;;
33952;SDS011;20231;42.710;23.280;2022-12-28T14:53:42;43.78;;;23.13;;
33952;SDS011;20231;42.710;23.280;2022-12-28T14:56:12;42.45;;;22.83;;
33952;SDS011;20231;42.710;23.280;2022-12-28T14:58:53;49.65;;;22.92;;
33952;SDS011;20231;42.710;23.280;2022-12-28T15:01:22;42.92;;;23.60;;
33952;SDS011;20231;42.710;23.280;2022-12-28T15:03:50;36.90;;;20.98;;
33952;SDS011;20231;42.710;23.280;2022-12-28T15:06:18;43.95;;;22.27;;
33952;SDS011;20231;42.710;23.280;2022-12-28T15:08:51;38.30;;;21.48;;
33952;SDS011;20231;42.710;23.280;2022-12-28T15:11:19;45.22;;;21.90;;
33952;SDS011;20231;42.710;23.280;2022-12-28T15:13:47;36.13;;;21.30;;
33952;SDS011;20231;42.710;23.280;2022-12-28T15:16:13;38.15;;;20.38;;
33952;SDS011;20231;42.710;23.280;2022-12-28T15:18:39;38.85;;;20.80;;
33952;SDS011;20231;42.710;23.280;2022-12-28T15:21:12;40.35;;;21.05;;
33952;SDS011;20231;42.710;23.280;2022-12-28T15:23:41;36.15;;;21.13;;
33952;SDS011;20231;42.710;23.280;2022-12-28T15:26:07;42.17;;;23.23;;
33952;SDS011;20231;42.710;23.280;2022-12-28T15:28:34;36.13;;;21.77;;
33952;SDS011;20231;42.710;23.280;2022-12-28T15:31:02;41.83;;;25.27;;
33952;SDS011;20231;42.710;23.280;2022-12-28T15:33:32;49.38;;;27.33;;
33952;SDS011;20231;42.710;23.280;2022-12-28T15:36:10;56.72;;;30.05;;
33952;SDS011;20231;42.710;23.280;2022-12-28T15:38:45;40.88;;;20.80;;
33952;SDS011;20231;42.710;23.280;2022-12-28T15:41:12;38.40;;;20.38;;
33952;SDS011;20231;42.710;23.280;2022-12-28T15:43:57;32.70;;;18.07;;
33952;SDS011;20231;42.710;23.280;2022-12-28T15:46:23;31.08;;;17.73;;
33952;SDS011;20231;42.710;23.280;2022-12-28T15:48:48;36.67;;;21.75;;
33952;SDS011;20231;42.710;23.280;2022-12-28T15:51:13;46.92;;;25.92;;
33952;SDS011;20231;42.710;23.280;2022-12-28T15:53:39;54.47;;;27.17;;
33952;SDS011;20231;42.710;23.280;2022-12-28T15:56:05;42.40;;;22.48;;
33952;SDS011;20231;42.710;23.280;2022-12-28T15:58:30;35.97;;;20.65;;
33952;SDS011;20231;42.710;23.280;2022-12-28T16:00:56;46.88;;;25.08;;
33952;SDS011;20231;42.710;23.280;2022-12-28T16:03:21;46.45;;;25.67;;
33952;SDS011;20231;42.710;23.280;2022-12-28T16:05:47;47.05;;;26.90;;
33952;SDS011;20231;42.710;23.280;2022-12-28T16:08:12;54.05;;;27.17;;
33952;SDS011;20231;42.710;23.280;2022-12-28T16:10:38;49.30;;;27.10;;
33952;SDS011;20231;42.710;23.280;2022-12-28T16:13:03;49.42;;;26.00;;
33952;SDS011;20231;42.710;23.280;2022-12-28T16:15:28;76.55;;;42.65;;
33952;SDS011;20231;42.710;23.280;2022-12-28T16:17:54;54.75;;;31.95;;